sensor_id;sensor_type;location;lat;lon;timestamp;P1;durP1;ratioP1;P2;durP2;ratioP2
15938;SDS011;8068;51.322;9.450;2023-06-10T00:00:45;6.60;;;5.90;;
15938;SDS011;8068;51.322;9.450;2023-06-10T00:03:29;6.30;;;5.80;;
15938;SDS011;8068;51.322;9.450;2023-06-10T00:06:14;6.10;;;5.50;;
15938;SDS011;8068;51.322;9.450;2023-06-10T00:08:59;5.60;;;5.23;;
15938;SDS011;8068;51.322;9.450;2023-06-10T00:11:45;5.97;;;5.57;;
15938;SDS011;8068;51.322;9.450;2023-06-10T00:14:29;5.70;;;5.20;;
15938;SDS011;8068;51.322;9.450;2023-06-10T00:17:14;6.33;;;5.70;;
15938;SDS011;8068;51.322;9.450;2023-06-10T00:19:59;6.10;;;5.70;;
15938;SDS011;8068;51.322;9.450;2023-06-10T00:22:44;7.60;;;5.20;;
15938;SDS011;8068;51.322;9.450;2023-06-10T00:25:29;5.87;;;5.43;;
15938;SDS011;8068;51.322;9.450;2023-06-10T00:28:14;5.87;;;5.30;;
15938;SDS011;8068;51.322;9.450;2023-06-10T00:30:59;5.20;;;4.80;;
15938;SDS011;8068;51.322;9.450;2023-06-10T00:33:43;5.57;;;5.17;;
15938;SDS011;8068;51.322;9.450;2023-06-10T00:36:28;9.17;;;5.07;;
15938;SDS011;8068;51.322;9.450;2023-06-10T00:39:12;5.60;;;5.13;;
15938;SDS011;8068;51.322;9.450;2023-06-10T00:41:57;5.50;;;5.00;;
15938;SDS011;8068;51.322;9.450;2023-06-10T00:44:41;6.67;;;5.13;;
15938;SDS011;8068;51.322;9.450;2023-06-10T00:47:26;5.40;;;5.10;;
15938;SDS011;8068;51.322;9.450;2023-06-10T00:50:11;5.40;;;4.90;;
15938;SDS011;8068;51.322;9.450;2023-06-10T00:52:56;5.30;;;5.00;;
15938;SDS011;8068;51.322;9.450;2023-06-10T00:55:43;5.03;;;4.73;;
15938;SDS011;8068;51.322;9.450;2023-06-10T00:58:28;6.27;;;5.57;;
15938;SDS011;8068;51.322;9.450;2023-06-10T01:01:13;5.20;;;4.80;;
15938;SDS011;8068;51.322;9.450;2023-06-10T01:03:57;4.87;;;4.57;;
15938;SDS011;8068;51.322;9.450;2023-06-10T01:09:54;5.47;;;5.17;;
15938;SDS011;8068;51.322;9.450;2023-06-10T01:12:46;5.07;;;4.57;;
15938;SDS011;8068;51.322;9.450;2023-06-10T01:15:38;7.77;;;5.57;;
15938;SDS011;8068;51.322;9.450;2023-06-10T01:18:22;5.97;;;4.73;;
15938;SDS011;8068;51.322;9.450;2023-06-10T01:21:07;5.03;;;4.47;;
15938;SDS011;8068;51.322;9.450;2023-06-10T01:23:53;5.57;;;4.80;;
15938;SDS011;8068;51.322;9.450;2023-06-10T01:26:39;5.60;;;4.87;;
15938;SDS011;8068;51.322;9.450;2023-06-10T01:29:28;4.43;;;4.13;;
15938;SDS011;8068;51.322;9.450;2023-06-10T01:32:17;4.63;;;4.33;;
15938;SDS011;8068;51.322;9.450;2023-06-10T01:35:10;5.00;;;4.50;;
15938;SDS011;8068;51.322;9.450;2023-06-10T01:37:55;5.93;;;4.93;;
15938;SDS011;8068;51.322;9.450;2023-06-10T01:40:41;5.20;;;4.80;;
15938;SDS011;8068;51.322;9.450;2023-06-10T01:43:26;5.20;;;4.90;;
15938;SDS011;8068;51.322;9.450;2023-06-10T01:46:10;4.50;;;4.10;;
15938;SDS011;8068;51.322;9.450;2023-06-10T01:48:55;5.50;;;4.50;;
15938;SDS011;8068;51.322;9.450;2023-06-10T01:51:40;5.00;;;4.70;;
15938;SDS011;8068;51.322;9.450;2023-06-10T01:54:25;4.57;;;4.27;;
15938;SDS011;8068;51.322;9.450;2023-06-10T01:57:09;5.40;;;5.10;;
15938;SDS011;8068;51.322;9.450;2023-06-10T01:59:54;6.00;;;4.67;;
15938;SDS011;8068;51.322;9.450;2023-06-10T02:02:39;9.00;;;4.63;;
15938;SDS011;8068;51.322;9.450;2023-06-10T02:05:24;5.20;;;4.70;;
15938;SDS011;8068;51.322;9.450;2023-06-10T02:08:08;5.27;;;4.00;;
15938;SDS011;8068;51.322;9.450;2023-06-10T02:10:53;4.80;;;4.40;;
15938;SDS011;8068;51.322;9.450;2023-06-10T02:13:38;4.90;;;4.40;;
15938;SDS011;8068;51.322;9.450;2023-06-10T02:16:23;4.43;;;4.13;;
15938;SDS011;8068;51.322;9.450;2023-06-10T02:19:08;4.30;;;4.10;;
15938;SDS011;8068;51.322;9.450;2023-06-10T02:21:52;4.73;;;4.43;;
15938;SDS011;8068;51.322;9.450;2023-06-10T02:24:37;5.30;;;4.00;;
15938;SDS011;8068;51.322;9.450;2023-06-10T02:27:22;4.60;;;4.23;;
15938;SDS011;8068;51.322;9.450;2023-06-10T02:30:06;4.57;;;4.30;;
15938;SDS011;8068;51.322;9.450;2023-06-10T02:32:54;4.63;;;4.23;;
15938;SDS011;8068;51.322;9.450;2023-06-10T02:35:40;4.33;;;3.87;;
15938;SDS011;8068;51.322;9.450;2023-06-10T02:38:25;5.00;;;4.33;;
15938;SDS011;8068;51.322;9.450;2023-06-10T02:41:09;5.07;;;4.60;;
15938;SDS011;8068;51.322;9.450;2023-06-10T02:43:54;4.47;;;4.13;;
15938;SDS011;8068;51.322;9.450;2023-06-10T02:46:38;4.90;;;4.50;;
15938;SDS011;8068;51.322;9.450;2023-06-10T02:49:23;6.53;;;4.40;;
15938;SDS011;8068;51.322;9.450;2023-06-10T02:52:07;4.40;;;4.00;;
15938;SDS011;8068;51.322;9.450;2023-06-10T02:54:52;6.27;;;4.60;;
15938;SDS011;8068;51.322;9.450;2023-06-10T02:57:37;5.73;;;4.47;;
15938;SDS011;8068;51.322;9.450;2023-06-10T03:00:21;4.87;;;4.47;;
15938;SDS011;8068;51.322;9.450;2023-06-10T03:03:06;4.40;;;4.10;;
15938;SDS011;8068;51.322;9.450;2023-06-10T03:05:51;5.63;;;4.47;;
15938;SDS011;8068;51.322;9.450;2023-06-10T03:08:36;4.53;;;4.13;;
15938;SDS011;8068;51.322;9.450;2023-06-10T03:11:21;5.40;;;4.67;;
15938;SDS011;8068;51.322;9.450;2023-06-10T03:14:07;4.90;;;4.40;;
15938;SDS011;8068;51.322;9.450;2023-06-10T03:16:51;4.60;;;4.20;;
15938;SDS011;8068;51.322;9.450;2023-06-10T03:19:36;4.47;;;4.17;;
15938;SDS011;8068;51.322;9.450;2023-06-10T03:22:22;4.20;;;3.97;;
15938;SDS011;8068;51.322;9.450;2023-06-10T03:25:06;5.03;;;4.60;;
15938;SDS011;8068;51.322;9.450;2023-06-10T03:27:52;5.63;;;4.43;;
15938;SDS011;8068;51.322;9.450;2023-06-10T03:30:37;4.83;;;4.53;;
15938;SDS011;8068;51.322;9.450;2023-06-10T03:33:21;4.80;;;4.40;;
15938;SDS011;8068;51.322;9.450;2023-06-10T03:36:05;5.83;;;4.23;;
15938;SDS011;8068;51.322;9.450;2023-06-10T03:38:50;4.30;;;4.00;;
15938;SDS011;8068;51.322;9.450;2023-06-10T03:41:36;8.90;;;4.10;;
15938;SDS011;8068;51.322;9.450;2023-06-10T03:44:20;4.33;;;3.93;;
15938;SDS011;8068;51.322;9.450;2023-06-10T03:47:05;4.57;;;4.20;;
15938;SDS011;8068;51.322;9.450;2023-06-10T03:49:50;7.37;;;4.50;;
15938;SDS011;8068;51.322;9.450;2023-06-10T03:52:37;4.07;;;3.77;;
15938;SDS011;8068;51.322;9.450;2023-06-10T03:55:22;10.53;;;4.17;;
15938;SDS011;8068;51.322;9.450;2023-06-10T03:58:07;5.27;;;4.50;;
15938;SDS011;8068;51.322;9.450;2023-06-10T04:00:52;6.93;;;4.47;;
15938;SDS011;8068;51.322;9.450;2023-06-10T04:03:36;4.40;;;4.20;;
15938;SDS011;8068;51.322;9.450;2023-06-10T04:06:21;4.10;;;3.90;;
15938;SDS011;8068;51.322;9.450;2023-06-10T04:09:06;4.93;;;4.50;;
15938;SDS011;8068;51.322;9.450;2023-06-10T04:11:51;5.33;;;4.67;;
15938;SDS011;8068;51.322;9.450;2023-06-10T04:14:36;4.70;;;4.30;;
15938;SDS011;8068;51.322;9.450;2023-06-10T04:17:21;8.93;;;4.90;;
15938;SDS011;8068;51.322;9.450;2023-06-10T04:20:06;5.47;;;4.30;;
15938;SDS011;8068;51.322;9.450;2023-06-10T04:22:52;4.30;;;4.00;;
15938;SDS011;8068;51.322;9.450;2023-06-10T04:25:36;4.93;;;4.53;;
15938;SDS011;8068;51.322;9.450;2023-06-10T04:28:21;4.43;;;4.13;;
15938;SDS011;8068;51.322;9.450;2023-06-10T04:31:05;4.07;;;3.67;;
15938;SDS011;8068;51.322;9.450;2023-06-10T04:33:50;4.80;;;4.40;;
15938;SDS011;8068;51.322;9.450;2023-06-10T04:36:34;4.40;;;4.10;;
15938;SDS011;8068;51.322;9.450;2023-06-10T04:39:19;4.67;;;4.27;;
15938;SDS011;8068;51.322;9.450;2023-06-10T04:42:04;4.93;;;4.40;;
15938;SDS011;8068;51.322;9.450;2023-06-10T04:44:49;4.00;;;3.70;;
15938;SDS011;8068;51.322;9.450;2023-06-10T04:47:34;5.10;;;4.20;;
15938;SDS011;8068;51.322;9.450;2023-06-10T04:50:18;4.40;;;4.17;;
15938;SDS011;8068;51.322;9.450;2023-06-10T04:53:03;4.67;;;4.20;;
15938;SDS011;8068;51.322;9.450;2023-06-10T04:55:48;4.80;;;4.17;;
15938;SDS011;8068;51.322;9.450;2023-06-10T04:58:32;4.30;;;3.90;;
15938;SDS011;8068;51.322;9.450;2023-06-10T05:01:16;4.47;;;4.17;;
15938;SDS011;8068;51.322;9.450;2023-06-10T05:04:01;5.57;;;4.10;;
15938;SDS011;8068;51.322;9.450;2023-06-10T05:06:45;4.50;;;4.20;;
15938;SDS011;8068;51.322;9.450;2023-06-10T05:09:30;4.73;;;4.00;;
15938;SDS011;8068;51.322;9.450;2023-06-10T05:12:14;6.13;;;4.43;;
15938;SDS011;8068;51.322;9.450;2023-06-10T05:14:59;4.70;;;4.23;;
15938;SDS011;8068;51.322;9.450;2023-06-10T05:17:43;4.83;;;3.80;;
15938;SDS011;8068;51.322;9.450;2023-06-10T05:20:28;3.90;;;3.70;;
15938;SDS011;8068;51.322;9.450;2023-06-10T05:23:13;4.60;;;4.20;;
15938;SDS011;8068;51.322;9.450;2023-06-10T05:25:58;4.10;;;3.80;;
15938;SDS011;8068;51.322;9.450;2023-06-10T05:28:43;5.10;;;4.03;;
15938;SDS011;8068;51.322;9.450;2023-06-10T05:31:28;4.40;;;4.10;;
15938;SDS011;8068;51.322;9.450;2023-06-10T05:34:12;4.67;;;4.03;;
15938;SDS011;8068;51.322;9.450;2023-06-10T05:36:57;4.70;;;3.97;;
15938;SDS011;8068;51.322;9.450;2023-06-10T05:39:41;4.30;;;3.93;;
15938;SDS011;8068;51.322;9.450;2023-06-10T05:42:26;6.07;;;4.10;;
15938;SDS011;8068;51.322;9.450;2023-06-10T05:45:10;5.87;;;4.00;;
15938;SDS011;8068;51.322;9.450;2023-06-10T05:47:55;5.20;;;3.90;;
15938;SDS011;8068;51.322;9.450;2023-06-10T05:50:40;5.50;;;4.27;;
15938;SDS011;8068;51.322;9.450;2023-06-10T05:53:26;4.43;;;4.03;;
15938;SDS011;8068;51.322;9.450;2023-06-10T05:56:11;4.00;;;3.70;;
15938;SDS011;8068;51.322;9.450;2023-06-10T05:58:56;4.10;;;3.80;;
15938;SDS011;8068;51.322;9.450;2023-06-10T06:01:40;7.60;;;4.00;;
15938;SDS011;8068;51.322;9.450;2023-06-10T06:04:25;6.63;;;4.90;;
15938;SDS011;8068;51.322;9.450;2023-06-10T06:07:09;4.50;;;4.23;;
15938;SDS011;8068;51.322;9.450;2023-06-10T06:09:54;4.90;;;4.50;;
15938;SDS011;8068;51.322;9.450;2023-06-10T06:12:38;5.10;;;4.03;;
15938;SDS011;8068;51.322;9.450;2023-06-10T06:15:22;4.87;;;4.47;;
15938;SDS011;8068;51.322;9.450;2023-06-10T06:18:07;6.73;;;4.10;;
15938;SDS011;8068;51.322;9.450;2023-06-10T06:20:51;7.60;;;3.80;;
15938;SDS011;8068;51.322;9.450;2023-06-10T06:23:36;7.43;;;3.97;;
15938;SDS011;8068;51.322;9.450;2023-06-10T06:26:20;3.60;;;3.40;;
15938;SDS011;8068;51.322;9.450;2023-06-10T06:29:05;6.70;;;4.07;;
15938;SDS011;8068;51.322;9.450;2023-06-10T06:31:49;4.23;;;3.83;;
15938;SDS011;8068;51.322;9.450;2023-06-10T06:34:34;9.83;;;4.57;;
15938;SDS011;8068;51.322;9.450;2023-06-10T06:37:20;4.10;;;3.70;;
15938;SDS011;8068;51.322;9.450;2023-06-10T06:40:06;4.10;;;3.80;;
15938;SDS011;8068;51.322;9.450;2023-06-10T06:42:51;6.73;;;6.17;;
15938;SDS011;8068;51.322;9.450;2023-06-10T06:45:35;4.57;;;4.13;;
15938;SDS011;8068;51.322;9.450;2023-06-10T06:48:20;4.17;;;3.87;;
15938;SDS011;8068;51.322;9.450;2023-06-10T06:51:05;5.17;;;4.33;;
15938;SDS011;8068;51.322;9.450;2023-06-10T06:53:49;6.93;;;3.83;;
15938;SDS011;8068;51.322;9.450;2023-06-10T06:56:35;4.23;;;3.80;;
15938;SDS011;8068;51.322;9.450;2023-06-10T06:59:19;8.77;;;3.73;;
15938;SDS011;8068;51.322;9.450;2023-06-10T07:02:04;5.90;;;4.50;;
15938;SDS011;8068;51.322;9.450;2023-06-10T07:04:49;6.40;;;4.10;;
15938;SDS011;8068;51.322;9.450;2023-06-10T07:07:34;3.90;;;3.60;;
15938;SDS011;8068;51.322;9.450;2023-06-10T07:10:18;3.80;;;3.50;;
15938;SDS011;8068;51.322;9.450;2023-06-10T07:13:03;3.80;;;3.50;;
15938;SDS011;8068;51.322;9.450;2023-06-10T07:15:47;6.73;;;4.17;;
15938;SDS011;8068;51.322;9.450;2023-06-10T07:18:32;3.90;;;3.70;;
15938;SDS011;8068;51.322;9.450;2023-06-10T07:21:16;3.93;;;3.63;;
15938;SDS011;8068;51.322;9.450;2023-06-10T07:24:00;3.93;;;3.70;;
15938;SDS011;8068;51.322;9.450;2023-06-10T07:26:45;3.77;;;3.47;;
15938;SDS011;8068;51.322;9.450;2023-06-10T07:29:29;4.57;;;4.10;;
15938;SDS011;8068;51.322;9.450;2023-06-10T07:32:14;3.90;;;3.60;;
15938;SDS011;8068;51.322;9.450;2023-06-10T07:35:01;4.20;;;3.87;;
15938;SDS011;8068;51.322;9.450;2023-06-10T07:37:46;3.63;;;3.33;;
15938;SDS011;8068;51.322;9.450;2023-06-10T07:40:31;4.00;;;3.60;;
15938;SDS011;8068;51.322;9.450;2023-06-10T07:43:19;5.07;;;4.57;;
15938;SDS011;8068;51.322;9.450;2023-06-10T07:46:03;5.67;;;4.30;;
15938;SDS011;8068;51.322;9.450;2023-06-10T07:48:49;3.50;;;3.30;;
15938;SDS011;8068;51.322;9.450;2023-06-10T07:51:34;4.87;;;4.07;;
15938;SDS011;8068;51.322;9.450;2023-06-10T07:54:18;7.20;;;4.17;;
15938;SDS011;8068;51.322;9.450;2023-06-10T07:57:03;4.97;;;3.80;;
15938;SDS011;8068;51.322;9.450;2023-06-10T07:59:48;6.53;;;4.43;;
15938;SDS011;8068;51.322;9.450;2023-06-10T08:02:33;8.43;;;5.20;;
15938;SDS011;8068;51.322;9.450;2023-06-10T08:05:17;8.60;;;4.40;;
15938;SDS011;8068;51.322;9.450;2023-06-10T08:08:02;5.30;;;3.57;;
15938;SDS011;8068;51.322;9.450;2023-06-10T08:10:48;6.73;;;4.30;;
15938;SDS011;8068;51.322;9.450;2023-06-10T08:13:33;8.27;;;4.20;;
15938;SDS011;8068;51.322;9.450;2023-06-10T08:16:18;6.43;;;4.10;;
15938;SDS011;8068;51.322;9.450;2023-06-10T08:19:02;8.67;;;4.60;;
15938;SDS011;8068;51.322;9.450;2023-06-10T08:21:47;4.43;;;4.03;;
15938;SDS011;8068;51.322;9.450;2023-06-10T08:24:32;4.23;;;3.93;;
15938;SDS011;8068;51.322;9.450;2023-06-10T08:27:17;8.50;;;4.33;;
15938;SDS011;8068;51.322;9.450;2023-06-10T08:30:01;4.93;;;4.53;;
15938;SDS011;8068;51.322;9.450;2023-06-10T08:32:46;5.20;;;4.30;;
15938;SDS011;8068;51.322;9.450;2023-06-10T08:35:30;12.33;;;4.60;;
15938;SDS011;8068;51.322;9.450;2023-06-10T08:38:15;4.57;;;4.27;;
15938;SDS011;8068;51.322;9.450;2023-06-10T08:41:00;4.63;;;4.20;;
15938;SDS011;8068;51.322;9.450;2023-06-10T08:43:46;4.93;;;4.63;;
15938;SDS011;8068;51.322;9.450;2023-06-10T08:46:36;10.10;;;4.60;;
15938;SDS011;8068;51.322;9.450;2023-06-10T08:49:21;8.70;;;4.97;;
15938;SDS011;8068;51.322;9.450;2023-06-10T08:52:07;6.60;;;5.20;;
15938;SDS011;8068;51.322;9.450;2023-06-10T08:54:59;4.70;;;4.40;;
15938;SDS011;8068;51.322;9.450;2023-06-10T08:57:44;9.70;;;6.30;;
15938;SDS011;8068;51.322;9.450;2023-06-10T09:00:30;5.17;;;4.80;;
15938;SDS011;8068;51.322;9.450;2023-06-10T09:03:15;8.17;;;5.37;;
15938;SDS011;8068;51.322;9.450;2023-06-10T09:06:00;6.87;;;5.67;;
15938;SDS011;8068;51.322;9.450;2023-06-10T09:08:46;5.23;;;4.73;;
15938;SDS011;8068;51.322;9.450;2023-06-10T09:11:31;5.43;;;5.03;;
15938;SDS011;8068;51.322;9.450;2023-06-10T09:14:15;5.80;;;5.30;;
15938;SDS011;8068;51.322;9.450;2023-06-10T09:17:01;7.50;;;4.90;;
15938;SDS011;8068;51.322;9.450;2023-06-10T09:19:46;6.33;;;5.73;;
15938;SDS011;8068;51.322;9.450;2023-06-10T09:22:32;6.80;;;5.30;;
15938;SDS011;8068;51.322;9.450;2023-06-10T09:25:16;7.73;;;5.60;;
15938;SDS011;8068;51.322;9.450;2023-06-10T09:28:01;8.10;;;4.73;;
15938;SDS011;8068;51.322;9.450;2023-06-10T09:30:47;8.50;;;4.90;;
15938;SDS011;8068;51.322;9.450;2023-06-10T09:33:31;6.77;;;4.53;;
15938;SDS011;8068;51.322;9.450;2023-06-10T09:36:22;5.97;;;5.40;;
15938;SDS011;8068;51.322;9.450;2023-06-10T09:39:14;5.70;;;5.20;;
15938;SDS011;8068;51.322;9.450;2023-06-10T09:42:00;5.27;;;4.93;;
15938;SDS011;8068;51.322;9.450;2023-06-10T09:44:51;9.80;;;5.03;;
15938;SDS011;8068;51.322;9.450;2023-06-10T09:47:35;5.40;;;4.90;;
15938;SDS011;8068;51.322;9.450;2023-06-10T09:50:20;11.53;;;4.60;;
15938;SDS011;8068;51.322;9.450;2023-06-10T09:53:06;6.27;;;5.60;;
15938;SDS011;8068;51.322;9.450;2023-06-10T09:55:51;5.60;;;5.20;;
15938;SDS011;8068;51.322;9.450;2023-06-10T09:58:37;6.07;;;5.57;;
15938;SDS011;8068;51.322;9.450;2023-06-10T10:01:22;6.57;;;5.20;;
15938;SDS011;8068;51.322;9.450;2023-06-10T10:04:06;5.70;;;5.40;;
15938;SDS011;8068;51.322;9.450;2023-06-10T10:06:51;5.67;;;5.20;;
15938;SDS011;8068;51.322;9.450;2023-06-10T10:09:36;5.00;;;4.60;;
15938;SDS011;8068;51.322;9.450;2023-06-10T10:12:21;6.20;;;5.80;;
15938;SDS011;8068;51.322;9.450;2023-06-10T10:15:07;5.90;;;5.40;;
15938;SDS011;8068;51.322;9.450;2023-06-10T10:17:58;8.53;;;5.87;;
15938;SDS011;8068;51.322;9.450;2023-06-10T10:20:52;6.53;;;5.60;;
15938;SDS011;8068;51.322;9.450;2023-06-10T10:26:52;5.70;;;5.30;;
15938;SDS011;8068;51.322;9.450;2023-06-10T10:29:40;5.80;;;5.30;;
15938;SDS011;8068;51.322;9.450;2023-06-10T10:32:26;9.13;;;5.13;;
15938;SDS011;8068;51.322;9.450;2023-06-10T10:35:20;6.47;;;5.10;;
15938;SDS011;8068;51.322;9.450;2023-06-10T10:38:07;7.80;;;6.10;;
15938;SDS011;8068;51.322;9.450;2023-06-10T10:40:51;8.43;;;5.23;;
15938;SDS011;8068;51.322;9.450;2023-06-10T10:43:36;5.33;;;4.83;;
15938;SDS011;8068;51.322;9.450;2023-06-10T10:46:21;8.43;;;5.10;;
15938;SDS011;8068;51.322;9.450;2023-06-10T10:49:05;11.13;;;5.27;;
15938;SDS011;8068;51.322;9.450;2023-06-10T10:51:57;7.90;;;5.27;;
15938;SDS011;8068;51.322;9.450;2023-06-10T10:54:43;10.97;;;5.10;;
15938;SDS011;8068;51.322;9.450;2023-06-10T10:57:29;5.80;;;5.00;;
15938;SDS011;8068;51.322;9.450;2023-06-10T11:00:14;5.03;;;4.63;;
15938;SDS011;8068;51.322;9.450;2023-06-10T11:03:12;6.53;;;5.20;;
15938;SDS011;8068;51.322;9.450;2023-06-10T11:05:58;5.73;;;5.23;;
15938;SDS011;8068;51.322;9.450;2023-06-10T11:11:31;12.13;;;5.57;;
15938;SDS011;8068;51.322;9.450;2023-06-10T11:14:25;5.47;;;5.07;;
15938;SDS011;8068;51.322;9.450;2023-06-10T11:17:18;5.50;;;4.93;;
15938;SDS011;8068;51.322;9.450;2023-06-10T11:20:03;5.33;;;4.93;;
15938;SDS011;8068;51.322;9.450;2023-06-10T11:23:00;5.50;;;5.10;;
15938;SDS011;8068;51.322;9.450;2023-06-10T11:25:46;5.20;;;4.90;;
15938;SDS011;8068;51.322;9.450;2023-06-10T11:28:30;7.07;;;5.47;;
15938;SDS011;8068;51.322;9.450;2023-06-10T11:31:33;8.33;;;5.10;;
15938;SDS011;8068;51.322;9.450;2023-06-10T11:34:23;5.10;;;4.70;;
15938;SDS011;8068;51.322;9.450;2023-06-10T11:37:10;5.40;;;4.93;;
15938;SDS011;8068;51.322;9.450;2023-06-10T11:39:54;5.90;;;5.50;;
15938;SDS011;8068;51.322;9.450;2023-06-10T11:42:40;13.07;;;5.50;;
15938;SDS011;8068;51.322;9.450;2023-06-10T11:45:25;5.53;;;5.33;;
15938;SDS011;8068;51.322;9.450;2023-06-10T11:48:09;6.30;;;5.80;;
15938;SDS011;8068;51.322;9.450;2023-06-10T11:50:54;7.13;;;5.30;;
15938;SDS011;8068;51.322;9.450;2023-06-10T11:53:39;13.47;;;10.50;;
15938;SDS011;8068;51.322;9.450;2023-06-10T11:56:24;6.23;;;5.73;;
15938;SDS011;8068;51.322;9.450;2023-06-10T11:59:12;6.17;;;5.30;;
15938;SDS011;8068;51.322;9.450;2023-06-10T12:01:57;7.20;;;6.60;;
15938;SDS011;8068;51.322;9.450;2023-06-10T12:04:41;6.63;;;6.13;;
15938;SDS011;8068;51.322;9.450;2023-06-10T12:07:25;6.00;;;5.70;;
15938;SDS011;8068;51.322;9.450;2023-06-10T12:10:10;6.33;;;5.83;;
15938;SDS011;8068;51.322;9.450;2023-06-10T12:13:11;5.90;;;5.33;;
15938;SDS011;8068;51.322;9.450;2023-06-10T12:16:05;7.50;;;6.33;;
15938;SDS011;8068;51.322;9.450;2023-06-10T12:19:00;16.37;;;9.00;;
15938;SDS011;8068;51.322;9.450;2023-06-10T12:21:46;65.53;;;37.47;;
15938;SDS011;8068;51.322;9.450;2023-06-10T12:24:31;68.33;;;31.43;;
15938;SDS011;8068;51.322;9.450;2023-06-10T12:27:15;40.03;;;18.13;;
15938;SDS011;8068;51.322;9.450;2023-06-10T12:30:03;241.27;;;90.53;;
15938;SDS011;8068;51.322;9.450;2023-06-10T12:32:50;123.60;;;48.17;;
15938;SDS011;8068;51.322;9.450;2023-06-10T12:35:36;184.90;;;79.63;;
15938;SDS011;8068;51.322;9.450;2023-06-10T12:38:33;141.57;;;52.97;;
15938;SDS011;8068;51.322;9.450;2023-06-10T12:41:18;51.53;;;30.20;;
15938;SDS011;8068;51.322;9.450;2023-06-10T12:44:02;13.97;;;9.50;;
15938;SDS011;8068;51.322;9.450;2023-06-10T12:46:53;9.93;;;7.10;;
15938;SDS011;8068;51.322;9.450;2023-06-10T12:49:38;5.10;;;4.80;;
15938;SDS011;8068;51.322;9.450;2023-06-10T12:52:23;7.87;;;6.00;;
15938;SDS011;8068;51.322;9.450;2023-06-10T12:55:08;5.23;;;4.73;;
15938;SDS011;8068;51.322;9.450;2023-06-10T12:57:53;5.63;;;5.33;;
15938;SDS011;8068;51.322;9.450;2023-06-10T13:00:38;5.33;;;4.90;;
15938;SDS011;8068;51.322;9.450;2023-06-10T13:03:24;4.57;;;4.27;;
15938;SDS011;8068;51.322;9.450;2023-06-10T13:06:08;4.80;;;4.40;;
15938;SDS011;8068;51.322;9.450;2023-06-10T13:08:53;5.37;;;4.87;;
15938;SDS011;8068;51.322;9.450;2023-06-10T13:11:37;5.10;;;4.43;;
15938;SDS011;8068;51.322;9.450;2023-06-10T13:14:22;5.37;;;4.10;;
15938;SDS011;8068;51.322;9.450;2023-06-10T13:17:06;5.50;;;4.70;;
15938;SDS011;8068;51.322;9.450;2023-06-10T13:19:51;5.03;;;4.53;;
15938;SDS011;8068;51.322;9.450;2023-06-10T13:22:36;5.20;;;4.53;;
15938;SDS011;8068;51.322;9.450;2023-06-10T13:25:20;5.70;;;4.73;;
15938;SDS011;8068;51.322;9.450;2023-06-10T13:28:05;4.93;;;4.53;;
15938;SDS011;8068;51.322;9.450;2023-06-10T13:30:49;4.30;;;3.97;;
15938;SDS011;8068;51.322;9.450;2023-06-10T13:33:34;7.53;;;4.73;;
15938;SDS011;8068;51.322;9.450;2023-06-10T13:36:19;4.30;;;4.10;;
15938;SDS011;8068;51.322;9.450;2023-06-10T13:39:03;4.30;;;4.00;;
15938;SDS011;8068;51.322;9.450;2023-06-10T13:41:47;9.60;;;4.10;;
15938;SDS011;8068;51.322;9.450;2023-06-10T13:44:32;5.43;;;3.70;;
15938;SDS011;8068;51.322;9.450;2023-06-10T13:47:20;6.80;;;4.17;;
15938;SDS011;8068;51.322;9.450;2023-06-10T13:50:04;4.97;;;4.67;;
15938;SDS011;8068;51.322;9.450;2023-06-10T13:52:49;14.60;;;4.50;;
15938;SDS011;8068;51.322;9.450;2023-06-10T13:55:34;5.23;;;4.83;;
15938;SDS011;8068;51.322;9.450;2023-06-10T13:58:18;5.50;;;4.40;;
15938;SDS011;8068;51.322;9.450;2023-06-10T14:01:03;4.53;;;4.33;;
15938;SDS011;8068;51.322;9.450;2023-06-10T14:03:47;4.63;;;4.20;;
15938;SDS011;8068;51.322;9.450;2023-06-10T14:06:32;4.67;;;4.47;;
15938;SDS011;8068;51.322;9.450;2023-06-10T14:09:17;5.03;;;4.73;;
15938;SDS011;8068;51.322;9.450;2023-06-10T14:12:02;5.87;;;4.10;;
15938;SDS011;8068;51.322;9.450;2023-06-10T14:14:47;5.07;;;4.77;;
15938;SDS011;8068;51.322;9.450;2023-06-10T14:17:32;5.03;;;4.73;;
15938;SDS011;8068;51.322;9.450;2023-06-10T14:20:16;4.90;;;4.60;;
15938;SDS011;8068;51.322;9.450;2023-06-10T14:23:01;5.23;;;4.73;;
15938;SDS011;8068;51.322;9.450;2023-06-10T14:25:45;4.80;;;4.50;;
15938;SDS011;8068;51.322;9.450;2023-06-10T14:28:33;5.43;;;4.93;;
15938;SDS011;8068;51.322;9.450;2023-06-10T14:31:18;6.10;;;4.40;;
15938;SDS011;8068;51.322;9.450;2023-06-10T14:34:02;7.03;;;4.73;;
15938;SDS011;8068;51.322;9.450;2023-06-10T14:36:47;8.37;;;5.37;;
15938;SDS011;8068;51.322;9.450;2023-06-10T14:39:31;4.60;;;4.40;;
15938;SDS011;8068;51.322;9.450;2023-06-10T14:42:16;6.27;;;5.87;;
15938;SDS011;8068;51.322;9.450;2023-06-10T14:45:00;7.20;;;4.47;;
15938;SDS011;8068;51.322;9.450;2023-06-10T14:47:45;4.63;;;4.33;;
15938;SDS011;8068;51.322;9.450;2023-06-10T14:50:31;4.83;;;4.53;;
15938;SDS011;8068;51.322;9.450;2023-06-10T14:53:16;5.97;;;5.43;;
15938;SDS011;8068;51.322;9.450;2023-06-10T14:56:01;5.37;;;4.50;;
15938;SDS011;8068;51.322;9.450;2023-06-10T14:58:46;4.43;;;4.20;;
15938;SDS011;8068;51.322;9.450;2023-06-10T15:01:30;4.87;;;4.47;;
15938;SDS011;8068;51.322;9.450;2023-06-10T15:04:15;4.60;;;4.40;;
15938;SDS011;8068;51.322;9.450;2023-06-10T15:07:00;4.47;;;4.10;;
15938;SDS011;8068;51.322;9.450;2023-06-10T15:09:44;8.90;;;4.80;;
15938;SDS011;8068;51.322;9.450;2023-06-10T15:12:29;4.83;;;4.43;;
15938;SDS011;8068;51.322;9.450;2023-06-10T15:15:13;5.20;;;4.60;;
15938;SDS011;8068;51.322;9.450;2023-06-10T15:17:57;5.10;;;4.70;;
15938;SDS011;8068;51.322;9.450;2023-06-10T15:20:42;6.27;;;4.20;;
15938;SDS011;8068;51.322;9.450;2023-06-10T15:23:26;5.00;;;4.70;;
15938;SDS011;8068;51.322;9.450;2023-06-10T15:26:11;4.80;;;4.30;;
15938;SDS011;8068;51.322;9.450;2023-06-10T15:28:55;6.23;;;5.10;;
15938;SDS011;8068;51.322;9.450;2023-06-10T15:31:39;4.97;;;4.50;;
15938;SDS011;8068;51.322;9.450;2023-06-10T15:34:24;5.90;;;5.47;;
15938;SDS011;8068;51.322;9.450;2023-06-10T15:37:09;5.73;;;5.43;;
15938;SDS011;8068;51.322;9.450;2023-06-10T15:39:53;5.30;;;5.00;;
15938;SDS011;8068;51.322;9.450;2023-06-10T15:42:38;7.30;;;4.80;;
15938;SDS011;8068;51.322;9.450;2023-06-10T15:45:23;4.83;;;4.50;;
15938;SDS011;8068;51.322;9.450;2023-06-10T15:48:07;4.87;;;4.53;;
15938;SDS011;8068;51.322;9.450;2023-06-10T15:50:51;4.80;;;4.60;;
15938;SDS011;8068;51.322;9.450;2023-06-10T15:53:36;5.07;;;4.67;;
15938;SDS011;8068;51.322;9.450;2023-06-10T15:56:21;5.07;;;4.63;;
15938;SDS011;8068;51.322;9.450;2023-06-10T15:59:05;5.07;;;4.77;;
15938;SDS011;8068;51.322;9.450;2023-06-10T16:01:50;5.53;;;5.17;;
15938;SDS011;8068;51.322;9.450;2023-06-10T16:04:34;5.47;;;5.07;;
15938;SDS011;8068;51.322;9.450;2023-06-10T16:07:19;5.00;;;4.80;;
15938;SDS011;8068;51.322;9.450;2023-06-10T16:10:04;5.20;;;4.80;;
15938;SDS011;8068;51.322;9.450;2023-06-10T16:12:48;5.80;;;5.20;;
15938;SDS011;8068;51.322;9.450;2023-06-10T16:15:33;6.20;;;5.70;;
15938;SDS011;8068;51.322;9.450;2023-06-10T16:18:17;5.17;;;4.80;;
15938;SDS011;8068;51.322;9.450;2023-06-10T16:21:02;4.90;;;4.70;;
15938;SDS011;8068;51.322;9.450;2023-06-10T16:23:46;5.53;;;5.23;;
15938;SDS011;8068;51.322;9.450;2023-06-10T16:26:31;5.77;;;5.27;;
15938;SDS011;8068;51.322;9.450;2023-06-10T16:29:16;6.53;;;5.93;;
15938;SDS011;8068;51.322;9.450;2023-06-10T16:32:00;6.73;;;5.10;;
15938;SDS011;8068;51.322;9.450;2023-06-10T16:34:47;5.87;;;5.37;;
15938;SDS011;8068;51.322;9.450;2023-06-10T16:37:31;5.73;;;5.43;;
15938;SDS011;8068;51.322;9.450;2023-06-10T16:40:16;6.27;;;5.83;;
15938;SDS011;8068;51.322;9.450;2023-06-10T16:43:00;5.73;;;5.33;;
15938;SDS011;8068;51.322;9.450;2023-06-10T16:45:45;6.87;;;5.50;;
15938;SDS011;8068;51.322;9.450;2023-06-10T16:48:29;5.90;;;5.60;;
15938;SDS011;8068;51.322;9.450;2023-06-10T16:51:13;6.20;;;5.70;;
15938;SDS011;8068;51.322;9.450;2023-06-10T16:53:59;6.27;;;5.87;;
15938;SDS011;8068;51.322;9.450;2023-06-10T16:56:43;5.90;;;5.57;;
15938;SDS011;8068;51.322;9.450;2023-06-10T16:59:28;6.13;;;5.63;;